sensor_id;sensor_type;location;lat;lon;timestamp;P1;durP1;ratioP1;P2;durP2;ratioP2
74904;SDS011;63465;50.862;6.220;2022-12-18T00:02:06;14.43;;;7.83;;
74904;SDS011;63465;50.862;6.220;2022-12-18T00:04:33;16.77;;;8.80;;
74904;SDS011;63465;50.862;6.220;2022-12-18T00:07:01;16.10;;;8.40;;
74904;SDS011;63465;50.862;6.220;2022-12-18T00:09:28;18.43;;;8.60;;
74904;SDS011;63465;50.862;6.220;2022-12-18T00:11:54;18.17;;;9.10;;
74904;SDS011;63465;50.862;6.220;2022-12-18T00:14:22;18.10;;;8.10;;
74904;SDS011;63465;50.862;6.220;2022-12-18T00:16:48;16.37;;;8.10;;
74904;SDS011;63465;50.862;6.220;2022-12-18T00:19:15;19.53;;;9.17;;
74904;SDS011;63465;50.862;6.220;2022-12-18T00:21:42;17.43;;;8.77;;
74904;SDS011;63465;50.862;6.220;2022-12-18T00:24:11;13.90;;;7.90;;
74904;SDS011;63465;50.862;6.220;2022-12-18T00:26:38;12.67;;;7.00;;
74904;SDS011;63465;50.862;6.220;2022-12-18T00:29:06;14.30;;;7.93;;
74904;SDS011;63465;50.862;6.220;2022-12-18T00:31:34;14.50;;;8.30;;
74904;SDS011;63465;50.862;6.220;2022-12-18T00:34:01;14.63;;;7.27;;
74904;SDS011;63465;50.862;6.220;2022-12-18T00:36:29;15.50;;;7.97;;
74904;SDS011;63465;50.862;6.220;2022-12-18T00:38:58;14.80;;;7.23;;
74904;SDS011;63465;50.862;6.220;2022-12-18T00:41:28;15.97;;;7.13;;
74904;SDS011;63465;50.862;6.220;2022-12-18T00:44:12;14.13;;;7.90;;
74904;SDS011;63465;50.862;6.220;2022-12-18T00:46:41;9.80;;;6.27;;
74904;SDS011;63465;50.862;6.220;2022-12-18T00:49:08;12.20;;;7.00;;
74904;SDS011;63465;50.862;6.220;2022-12-18T00:51:35;14.30;;;7.53;;
74904;SDS011;63465;50.862;6.220;2022-12-18T00:54:02;13.63;;;7.03;;
74904;SDS011;63465;50.862;6.220;2022-12-18T00:56:31;9.73;;;6.37;;
74904;SDS011;63465;50.862;6.220;2022-12-18T00:58:57;15.80;;;7.43;;
74904;SDS011;63465;50.862;6.220;2022-12-18T01:01:24;14.93;;;6.40;;
74904;SDS011;63465;50.862;6.220;2022-12-18T01:03:51;12.93;;;6.13;;
74904;SDS011;63465;50.862;6.220;2022-12-18T01:06:19;13.13;;;7.70;;
74904;SDS011;63465;50.862;6.220;2022-12-18T01:08:46;8.60;;;5.20;;
74904;SDS011;63465;50.862;6.220;2022-12-18T01:11:13;13.33;;;6.43;;
74904;SDS011;63465;50.862;6.220;2022-12-18T01:13:42;11.43;;;5.37;;
74904;SDS011;63465;50.862;6.220;2022-12-18T01:16:11;13.40;;;5.90;;
74904;SDS011;63465;50.862;6.220;2022-12-18T01:18:38;5.73;;;5.03;;
74904;SDS011;63465;50.862;6.220;2022-12-18T01:21:06;11.70;;;6.10;;
74904;SDS011;63465;50.862;6.220;2022-12-18T01:23:36;12.00;;;6.13;;
74904;SDS011;63465;50.862;6.220;2022-12-18T01:26:04;13.10;;;5.87;;
74904;SDS011;63465;50.862;6.220;2022-12-18T01:28:34;10.50;;;6.30;;
74904;SDS011;63465;50.862;6.220;2022-12-18T01:31:16;7.53;;;4.87;;
74904;SDS011;63465;50.862;6.220;2022-12-18T01:33:45;8.23;;;5.00;;
74904;SDS011;63465;50.862;6.220;2022-12-18T01:36:14;9.00;;;4.80;;
74904;SDS011;63465;50.862;6.220;2022-12-18T01:38:42;7.00;;;4.70;;
74904;SDS011;63465;50.862;6.220;2022-12-18T01:41:09;8.33;;;5.20;;
74904;SDS011;63465;50.862;6.220;2022-12-18T01:43:40;7.67;;;4.63;;
74904;SDS011;63465;50.862;6.220;2022-12-18T01:46:08;7.60;;;4.77;;
74904;SDS011;63465;50.862;6.220;2022-12-18T01:48:37;8.33;;;5.73;;
74904;SDS011;63465;50.862;6.220;2022-12-18T01:51:05;6.63;;;5.20;;
74904;SDS011;63465;50.862;6.220;2022-12-18T01:53:34;5.97;;;4.53;;
74904;SDS011;63465;50.862;6.220;2022-12-18T01:56:01;7.87;;;4.60;;
74904;SDS011;63465;50.862;6.220;2022-12-18T01:58:30;11.43;;;5.73;;
74904;SDS011;63465;50.862;6.220;2022-12-18T02:01:03;8.90;;;5.90;;
74904;SDS011;63465;50.862;6.220;2022-12-18T02:03:31;11.60;;;5.90;;
74904;SDS011;63465;50.862;6.220;2022-12-18T02:06:01;9.50;;;5.30;;
74904;SDS011;63465;50.862;6.220;2022-12-18T02:08:38;8.30;;;4.90;;
74904;SDS011;63465;50.862;6.220;2022-12-18T02:11:10;8.27;;;5.30;;
74904;SDS011;63465;50.862;6.220;2022-12-18T02:13:45;7.90;;;5.47;;
74904;SDS011;63465;50.862;6.220;2022-12-18T02:16:21;9.80;;;5.17;;
74904;SDS011;63465;50.862;6.220;2022-12-18T02:18:56;8.90;;;5.30;;
74904;SDS011;63465;50.862;6.220;2022-12-18T02:21:31;10.23;;;5.77;;
74904;SDS011;63465;50.862;6.220;2022-12-18T02:24:12;6.40;;;4.07;;
74904;SDS011;63465;50.862;6.220;2022-12-18T02:26:53;7.00;;;5.40;;
74904;SDS011;63465;50.862;6.220;2022-12-18T02:29:25;6.97;;;5.23;;
74904;SDS011;63465;50.862;6.220;2022-12-18T02:31:56;13.73;;;6.93;;
74904;SDS011;63465;50.862;6.220;2022-12-18T02:34:29;18.90;;;7.07;;
74904;SDS011;63465;50.862;6.220;2022-12-18T02:37:00;11.53;;;6.20;;
74904;SDS011;63465;50.862;6.220;2022-12-18T02:39:32;9.40;;;5.80;;
74904;SDS011;63465;50.862;6.220;2022-12-18T02:42:04;10.70;;;5.77;;
74904;SDS011;63465;50.862;6.220;2022-12-18T02:44:33;10.63;;;6.13;;
74904;SDS011;63465;50.862;6.220;2022-12-18T02:47:00;13.70;;;6.27;;
74904;SDS011;63465;50.862;6.220;2022-12-18T02:49:31;16.10;;;6.93;;
74904;SDS011;63465;50.862;6.220;2022-12-18T02:52:05;18.33;;;8.00;;
74904;SDS011;63465;50.862;6.220;2022-12-18T02:54:39;18.73;;;6.50;;
74904;SDS011;63465;50.862;6.220;2022-12-18T02:57:24;9.27;;;5.90;;
74904;SDS011;63465;50.862;6.220;2022-12-18T03:00:01;14.00;;;6.60;;
74904;SDS011;63465;50.862;6.220;2022-12-18T03:02:33;8.90;;;5.40;;
74904;SDS011;63465;50.862;6.220;2022-12-18T03:05:07;16.33;;;6.90;;
74904;SDS011;63465;50.862;6.220;2022-12-18T03:07:41;14.43;;;6.27;;
74904;SDS011;63465;50.862;6.220;2022-12-18T03:10:14;14.43;;;5.10;;
74904;SDS011;63465;50.862;6.220;2022-12-18T03:12:47;12.10;;;5.63;;
74904;SDS011;63465;50.862;6.220;2022-12-18T03:15:20;9.87;;;5.97;;
74904;SDS011;63465;50.862;6.220;2022-12-18T03:18:08;11.93;;;6.40;;
74904;SDS011;63465;50.862;6.220;2022-12-18T03:20:39;12.53;;;5.77;;
74904;SDS011;63465;50.862;6.220;2022-12-18T03:23:13;7.50;;;5.30;;
74904;SDS011;63465;50.862;6.220;2022-12-18T03:25:47;17.57;;;5.70;;
74904;SDS011;63465;50.862;6.220;2022-12-18T03:28:21;8.30;;;5.80;;
74904;SDS011;63465;50.862;6.220;2022-12-18T03:30:56;16.00;;;6.40;;
74904;SDS011;63465;50.862;6.220;2022-12-18T03:33:27;10.53;;;6.37;;
74904;SDS011;63465;50.862;6.220;2022-12-18T03:35:58;17.23;;;9.70;;
74904;SDS011;63465;50.862;6.220;2022-12-18T03:38:25;12.30;;;7.30;;
74904;SDS011;63465;50.862;6.220;2022-12-18T03:40:56;11.47;;;6.37;;
74904;SDS011;63465;50.862;6.220;2022-12-18T03:43:38;9.70;;;5.70;;
74904;SDS011;63465;50.862;6.220;2022-12-18T03:46:14;7.33;;;5.37;;
74904;SDS011;63465;50.862;6.220;2022-12-18T03:48:44;7.90;;;4.90;;
74904;SDS011;63465;50.862;6.220;2022-12-18T03:51:17;9.97;;;5.80;;
74904;SDS011;63465;50.862;6.220;2022-12-18T03:53:50;10.03;;;5.30;;
74904;SDS011;63465;50.862;6.220;2022-12-18T03:56:27;10.87;;;6.20;;
74904;SDS011;63465;50.862;6.220;2022-12-18T03:58:59;7.17;;;5.10;;
74904;SDS011;63465;50.862;6.220;2022-12-18T04:01:30;8.87;;;5.57;;
74904;SDS011;63465;50.862;6.220;2022-12-18T04:04:00;10.13;;;6.30;;
74904;SDS011;63465;50.862;6.220;2022-12-18T04:06:32;9.90;;;5.50;;
74904;SDS011;63465;50.862;6.220;2022-12-18T04:09:00;9.00;;;5.73;;
74904;SDS011;63465;50.862;6.220;2022-12-18T04:11:28;11.17;;;6.20;;
74904;SDS011;63465;50.862;6.220;2022-12-18T04:13:56;7.90;;;5.13;;
74904;SDS011;63465;50.862;6.220;2022-12-18T04:16:25;9.50;;;5.77;;
74904;SDS011;63465;50.862;6.220;2022-12-18T04:18:55;12.67;;;5.50;;
74904;SDS011;63465;50.862;6.220;2022-12-18T04:21:24;9.57;;;5.97;;
74904;SDS011;63465;50.862;6.220;2022-12-18T04:23:51;14.07;;;6.40;;
74904;SDS011;63465;50.862;6.220;2022-12-18T04:26:20;11.10;;;6.17;;
74904;SDS011;63465;50.862;6.220;2022-12-18T04:29:14;8.13;;;6.30;;
74904;SDS011;63465;50.862;6.220;2022-12-18T04:31:42;10.13;;;5.50;;
74904;SDS011;63465;50.862;6.220;2022-12-18T04:34:10;12.90;;;5.23;;
74904;SDS011;63465;50.862;6.220;2022-12-18T04:36:42;10.57;;;6.23;;
74904;SDS011;63465;50.862;6.220;2022-12-18T04:39:09;7.13;;;5.27;;
74904;SDS011;63465;50.862;6.220;2022-12-18T04:41:36;10.43;;;5.20;;
74904;SDS011;63465;50.862;6.220;2022-12-18T04:44:03;8.17;;;5.37;;
74904;SDS011;63465;50.862;6.220;2022-12-18T04:46:30;8.87;;;5.40;;
74904;SDS011;63465;50.862;6.220;2022-12-18T04:48:58;15.03;;;6.40;;
74904;SDS011;63465;50.862;6.220;2022-12-18T04:51:25;10.60;;;5.97;;
74904;SDS011;63465;50.862;6.220;2022-12-18T04:53:52;10.97;;;5.30;;
74904;SDS011;63465;50.862;6.220;2022-12-18T04:56:18;9.37;;;5.50;;
74904;SDS011;63465;50.862;6.220;2022-12-18T04:58:45;15.33;;;5.97;;
74904;SDS011;63465;50.862;6.220;2022-12-18T05:01:12;11.10;;;5.70;;
74904;SDS011;63465;50.862;6.220;2022-12-18T05:03:41;10.30;;;5.90;;
74904;SDS011;63465;50.862;6.220;2022-12-18T05:06:09;8.27;;;4.77;;
74904;SDS011;63465;50.862;6.220;2022-12-18T05:08:36;8.23;;;4.77;;
74904;SDS011;63465;50.862;6.220;2022-12-18T05:11:04;9.93;;;5.87;;
74904;SDS011;63465;50.862;6.220;2022-12-18T05:13:32;12.37;;;6.40;;
74904;SDS011;63465;50.862;6.220;2022-12-18T05:16:00;9.60;;;6.10;;
74904;SDS011;63465;50.862;6.220;2022-12-18T05:18:27;17.27;;;7.70;;
74904;SDS011;63465;50.862;6.220;2022-12-18T05:20:54;10.27;;;5.77;;
74904;SDS011;63465;50.862;6.220;2022-12-18T05:23:23;16.30;;;6.73;;
74904;SDS011;63465;50.862;6.220;2022-12-18T05:25:50;14.20;;;7.00;;
74904;SDS011;63465;50.862;6.220;2022-12-18T05:28:18;26.90;;;13.33;;
74904;SDS011;63465;50.862;6.220;2022-12-18T05:30:47;19.70;;;10.80;;
74904;SDS011;63465;50.862;6.220;2022-12-18T05:33:14;13.03;;;8.17;;
74904;SDS011;63465;50.862;6.220;2022-12-18T05:35:41;16.80;;;6.00;;
74904;SDS011;63465;50.862;6.220;2022-12-18T05:38:08;14.40;;;7.00;;
74904;SDS011;63465;50.862;6.220;2022-12-18T05:40:36;9.20;;;6.27;;
74904;SDS011;63465;50.862;6.220;2022-12-18T05:43:02;16.93;;;7.67;;
74904;SDS011;63465;50.862;6.220;2022-12-18T05:45:29;10.07;;;6.20;;
74904;SDS011;63465;50.862;6.220;2022-12-18T05:47:56;9.87;;;5.53;;
74904;SDS011;63465;50.862;6.220;2022-12-18T05:50:22;9.00;;;5.30;;
74904;SDS011;63465;50.862;6.220;2022-12-18T05:52:49;11.07;;;6.60;;
74904;SDS011;63465;50.862;6.220;2022-12-18T05:55:16;11.97;;;6.27;;
74904;SDS011;63465;50.862;6.220;2022-12-18T05:57:44;11.10;;;6.43;;
74904;SDS011;63465;50.862;6.220;2022-12-18T06:00:11;12.77;;;5.63;;
74904;SDS011;63465;50.862;6.220;2022-12-18T06:02:38;9.00;;;5.20;;
74904;SDS011;63465;50.862;6.220;2022-12-18T06:05:05;9.93;;;6.20;;
74904;SDS011;63465;50.862;6.220;2022-12-18T06:07:32;10.57;;;5.20;;
74904;SDS011;63465;50.862;6.220;2022-12-18T06:09:59;13.10;;;5.80;;
74904;SDS011;63465;50.862;6.220;2022-12-18T06:12:26;11.60;;;6.60;;
74904;SDS011;63465;50.862;6.220;2022-12-18T06:14:54;10.90;;;5.67;;
74904;SDS011;63465;50.862;6.220;2022-12-18T06:17:20;10.63;;;5.70;;
74904;SDS011;63465;50.862;6.220;2022-12-18T06:19:47;12.13;;;6.13;;
74904;SDS011;63465;50.862;6.220;2022-12-18T06:22:14;6.73;;;5.00;;
74904;SDS011;63465;50.862;6.220;2022-12-18T06:24:40;7.60;;;4.80;;
74904;SDS011;63465;50.862;6.220;2022-12-18T06:27:07;14.00;;;5.87;;
74904;SDS011;63465;50.862;6.220;2022-12-18T06:29:34;11.47;;;6.20;;
74904;SDS011;63465;50.862;6.220;2022-12-18T06:32:02;10.23;;;5.83;;
74904;SDS011;63465;50.862;6.220;2022-12-18T06:34:31;13.07;;;5.73;;
74904;SDS011;63465;50.862;6.220;2022-12-18T06:36:59;8.70;;;5.33;;
74904;SDS011;63465;50.862;6.220;2022-12-18T06:39:26;12.17;;;6.60;;
74904;SDS011;63465;50.862;6.220;2022-12-18T06:41:53;10.30;;;6.57;;
74904;SDS011;63465;50.862;6.220;2022-12-18T06:44:20;9.80;;;5.27;;
74904;SDS011;63465;50.862;6.220;2022-12-18T06:46:47;11.47;;;6.10;;
74904;SDS011;63465;50.862;6.220;2022-12-18T06:49:15;12.20;;;6.53;;
74904;SDS011;63465;50.862;6.220;2022-12-18T06:51:42;11.97;;;6.63;;
74904;SDS011;63465;50.862;6.220;2022-12-18T06:54:08;7.20;;;5.30;;
74904;SDS011;63465;50.862;6.220;2022-12-18T06:56:35;14.20;;;6.53;;
74904;SDS011;63465;50.862;6.220;2022-12-18T06:59:02;16.43;;;5.50;;
74904;SDS011;63465;50.862;6.220;2022-12-18T07:01:29;9.60;;;6.20;;
74904;SDS011;63465;50.862;6.220;2022-12-18T07:03:56;15.10;;;6.80;;
74904;SDS011;63465;50.862;6.220;2022-12-18T07:06:25;20.63;;;7.50;;
74904;SDS011;63465;50.862;6.220;2022-12-18T07:08:53;10.00;;;5.80;;
74904;SDS011;63465;50.862;6.220;2022-12-18T07:11:20;7.80;;;5.73;;
74904;SDS011;63465;50.862;6.220;2022-12-18T07:13:47;8.93;;;5.87;;
74904;SDS011;63465;50.862;6.220;2022-12-18T07:16:14;11.27;;;5.60;;
74904;SDS011;63465;50.862;6.220;2022-12-18T07:18:42;9.97;;;5.40;;
74904;SDS011;63465;50.862;6.220;2022-12-18T07:21:10;8.20;;;6.17;;
74904;SDS011;63465;50.862;6.220;2022-12-18T07:23:39;12.47;;;6.70;;
74904;SDS011;63465;50.862;6.220;2022-12-18T07:26:07;29.67;;;12.40;;
74904;SDS011;63465;50.862;6.220;2022-12-18T07:28:35;25.63;;;12.23;;
74904;SDS011;63465;50.862;6.220;2022-12-18T07:31:03;11.00;;;6.27;;
74904;SDS011;63465;50.862;6.220;2022-12-18T07:33:31;25.77;;;11.30;;
74904;SDS011;63465;50.862;6.220;2022-12-18T07:35:58;34.57;;;12.10;;
74904;SDS011;63465;50.862;6.220;2022-12-18T07:38:25;10.60;;;6.27;;
74904;SDS011;63465;50.862;6.220;2022-12-18T07:40:53;11.90;;;6.27;;
74904;SDS011;63465;50.862;6.220;2022-12-18T07:43:19;14.07;;;6.93;;
74904;SDS011;63465;50.862;6.220;2022-12-18T07:45:48;9.93;;;5.87;;
74904;SDS011;63465;50.862;6.220;2022-12-18T07:48:15;10.83;;;7.40;;
74904;SDS011;63465;50.862;6.220;2022-12-18T07:50:42;7.47;;;5.57;;
74904;SDS011;63465;50.862;6.220;2022-12-18T07:53:08;10.50;;;7.00;;
74904;SDS011;63465;50.862;6.220;2022-12-18T07:55:35;12.97;;;6.37;;
74904;SDS011;63465;50.862;6.220;2022-12-18T07:58:03;15.37;;;7.70;;
74904;SDS011;63465;50.862;6.220;2022-12-18T08:00:30;11.33;;;5.97;;
74904;SDS011;63465;50.862;6.220;2022-12-18T08:02:57;12.33;;;6.50;;
74904;SDS011;63465;50.862;6.220;2022-12-18T08:05:24;11.47;;;6.67;;
74904;SDS011;63465;50.862;6.220;2022-12-18T08:07:50;19.63;;;11.97;;
74904;SDS011;63465;50.862;6.220;2022-12-18T08:10:18;10.47;;;6.97;;
74904;SDS011;63465;50.862;6.220;2022-12-18T08:12:45;16.30;;;7.43;;
74904;SDS011;63465;50.862;6.220;2022-12-18T08:15:13;16.03;;;7.53;;
74904;SDS011;63465;50.862;6.220;2022-12-18T08:17:39;17.00;;;7.60;;
74904;SDS011;63465;50.862;6.220;2022-12-18T08:20:07;12.33;;;6.80;;
74904;SDS011;63465;50.862;6.220;2022-12-18T08:22:34;11.30;;;6.57;;
74904;SDS011;63465;50.862;6.220;2022-12-18T08:25:01;16.27;;;7.63;;
74904;SDS011;63465;50.862;6.220;2022-12-18T08:27:28;16.10;;;7.20;;
74904;SDS011;63465;50.862;6.220;2022-12-18T08:29:55;12.50;;;6.87;;
74904;SDS011;63465;50.862;6.220;2022-12-18T08:32:23;19.90;;;7.77;;
74904;SDS011;63465;50.862;6.220;2022-12-18T08:34:51;13.97;;;6.57;;
74904;SDS011;63465;50.862;6.220;2022-12-18T08:37:17;11.97;;;6.80;;
74904;SDS011;63465;50.862;6.220;2022-12-18T08:39:44;14.13;;;8.00;;
74904;SDS011;63465;50.862;6.220;2022-12-18T08:42:11;9.10;;;6.60;;
74904;SDS011;63465;50.862;6.220;2022-12-18T08:44:55;16.23;;;7.30;;
74904;SDS011;63465;50.862;6.220;2022-12-18T08:47:23;10.60;;;7.10;;
74904;SDS011;63465;50.862;6.220;2022-12-18T08:49:51;11.30;;;7.50;;
74904;SDS011;63465;50.862;6.220;2022-12-18T08:52:17;20.90;;;7.70;;
74904;SDS011;63465;50.862;6.220;2022-12-18T08:54:44;17.20;;;8.10;;
74904;SDS011;63465;50.862;6.220;2022-12-18T08:57:11;20.50;;;7.90;;
74904;SDS011;63465;50.862;6.220;2022-12-18T08:59:37;19.33;;;9.20;;
74904;SDS011;63465;50.862;6.220;2022-12-18T09:02:04;13.97;;;8.53;;
74904;SDS011;63465;50.862;6.220;2022-12-18T09:04:32;16.27;;;7.67;;
74904;SDS011;63465;50.862;6.220;2022-12-18T09:06:59;18.27;;;7.80;;
74904;SDS011;63465;50.862;6.220;2022-12-18T09:09:25;16.47;;;6.80;;
74904;SDS011;63465;50.862;6.220;2022-12-18T09:11:52;15.77;;;8.20;;
74904;SDS011;63465;50.862;6.220;2022-12-18T09:14:19;17.50;;;7.77;;
74904;SDS011;63465;50.862;6.220;2022-12-18T09:16:45;20.60;;;7.83;;
74904;SDS011;63465;50.862;6.220;2022-12-18T09:19:12;15.53;;;8.50;;
74904;SDS011;63465;50.862;6.220;2022-12-18T09:21:40;15.17;;;7.40;;
74904;SDS011;63465;50.862;6.220;2022-12-18T09:24:08;14.60;;;7.37;;
74904;SDS011;63465;50.862;6.220;2022-12-18T09:26:39;15.77;;;7.90;;
74904;SDS011;63465;50.862;6.220;2022-12-18T09:29:06;15.17;;;7.77;;
74904;SDS011;63465;50.862;6.220;2022-12-18T09:31:34;18.83;;;7.87;;
74904;SDS011;63465;50.862;6.220;2022-12-18T09:34:01;19.93;;;8.87;;
74904;SDS011;63465;50.862;6.220;2022-12-18T09:36:30;20.40;;;11.20;;
74904;SDS011;63465;50.862;6.220;2022-12-18T09:38:58;16.23;;;9.47;;
74904;SDS011;63465;50.862;6.220;2022-12-18T09:41:31;18.97;;;10.60;;
74904;SDS011;63465;50.862;6.220;2022-12-18T09:44:09;17.73;;;9.03;;
74904;SDS011;63465;50.862;6.220;2022-12-18T09:46:42;18.20;;;8.97;;
74904;SDS011;63465;50.862;6.220;2022-12-18T09:49:12;17.90;;;8.23;;
74904;SDS011;63465;50.862;6.220;2022-12-18T09:51:43;15.10;;;8.00;;
74904;SDS011;63465;50.862;6.220;2022-12-18T09:54:16;14.87;;;8.23;;
74904;SDS011;63465;50.862;6.220;2022-12-18T09:56:46;15.23;;;8.30;;
74904;SDS011;63465;50.862;6.220;2022-12-18T09:59:17;15.83;;;8.00;;
74904;SDS011;63465;50.862;6.220;2022-12-18T10:01:47;13.93;;;7.47;;
74904;SDS011;63465;50.862;6.220;2022-12-18T10:04:14;16.00;;;8.03;;
74904;SDS011;63465;50.862;6.220;2022-12-18T10:06:42;14.20;;;8.43;;
74904;SDS011;63465;50.862;6.220;2022-12-18T10:09:17;24.70;;;9.17;;
74904;SDS011;63465;50.862;6.220;2022-12-18T10:11:53;18.80;;;9.07;;
74904;SDS011;63465;50.862;6.220;2022-12-18T10:14:30;16.27;;;8.57;;
74904;SDS011;63465;50.862;6.220;2022-12-18T10:17:05;14.53;;;8.40;;
74904;SDS011;63465;50.862;6.220;2022-12-18T10:19:39;17.67;;;7.20;;
74904;SDS011;63465;50.862;6.220;2022-12-18T10:22:26;17.20;;;7.90;;
74904;SDS011;63465;50.862;6.220;2022-12-18T10:25:06;16.67;;;8.20;;
74904;SDS011;63465;50.862;6.220;2022-12-18T10:27:43;18.67;;;8.33;;
74904;SDS011;63465;50.862;6.220;2022-12-18T10:30:12;19.80;;;9.07;;
74904;SDS011;63465;50.862;6.220;2022-12-18T10:32:40;20.10;;;9.60;;
74904;SDS011;63465;50.862;6.220;2022-12-18T10:35:09;17.30;;;8.77;;
74904;SDS011;63465;50.862;6.220;2022-12-18T10:37:58;15.97;;;8.03;;
74904;SDS011;63465;50.862;6.220;2022-12-18T10:40:27;19.60;;;9.10;;
74904;SDS011;63465;50.862;6.220;2022-12-18T10:43:02;21.50;;;9.17;;
74904;SDS011;63465;50.862;6.220;2022-12-18T10:45:30;23.80;;;11.77;;
74904;SDS011;63465;50.862;6.220;2022-12-18T10:47:57;34.77;;;16.00;;
74904;SDS011;63465;50.862;6.220;2022-12-18T10:50:26;24.23;;;12.67;;
74904;SDS011;63465;50.862;6.220;2022-12-18T10:52:56;29.90;;;13.90;;
74904;SDS011;63465;50.862;6.220;2022-12-18T10:55:24;22.00;;;10.93;;
74904;SDS011;63465;50.862;6.220;2022-12-18T10:58:02;19.30;;;9.97;;
74904;SDS011;63465;50.862;6.220;2022-12-18T11:00:43;19.53;;;10.23;;
74904;SDS011;63465;50.862;6.220;2022-12-18T11:03:28;17.63;;;9.47;;
74904;SDS011;63465;50.862;6.220;2022-12-18T11:06:04;18.00;;;9.17;;
74904;SDS011;63465;50.862;6.220;2022-12-18T11:08:32;16.83;;;10.30;;
74904;SDS011;63465;50.862;6.220;2022-12-18T11:11:01;16.30;;;9.87;;
74904;SDS011;63465;50.862;6.220;2022-12-18T11:13:29;18.87;;;9.97;;
74904;SDS011;63465;50.862;6.220;2022-12-18T11:15:57;17.53;;;9.43;;
74904;SDS011;63465;50.862;6.220;2022-12-18T11:18:25;23.03;;;9.10;;
74904;SDS011;63465;50.862;6.220;2022-12-18T11:20:55;21.83;;;9.57;;
74904;SDS011;63465;50.862;6.220;2022-12-18T11:23:23;18.03;;;9.27;;
74904;SDS011;63465;50.862;6.220;2022-12-18T11:25:52;22.13;;;9.93;;
74904;SDS011;63465;50.862;6.220;2022-12-18T11:28:27;17.53;;;9.67;;
74904;SDS011;63465;50.862;6.220;2022-12-18T11:31:12;19.60;;;9.77;;
74904;SDS011;63465;50.862;6.220;2022-12-18T11:33:56;17.13;;;9.23;;
74904;SDS011;63465;50.862;6.220;2022-12-18T11:36:28;17.60;;;9.07;;
74904;SDS011;63465;50.862;6.220;2022-12-18T11:38:59;20.20;;;9.80;;
74904;SDS011;63465;50.862;6.220;2022-12-18T11:41:29;17.67;;;9.43;;
74904;SDS011;63465;50.862;6.220;2022-12-18T11:44:21;20.53;;;10.27;;
74904;SDS011;63465;50.862;6.220;2022-12-18T11:46:52;17.73;;;9.33;;
74904;SDS011;63465;50.862;6.220;2022-12-18T11:49:22;16.90;;;9.00;;
74904;SDS011;63465;50.862;6.220;2022-12-18T11:51:54;17.60;;;9.03;;
74904;SDS011;63465;50.862;6.220;2022-12-18T11:54:26;17.77;;;9.20;;
74904;SDS011;63465;50.862;6.220;2022-12-18T11:56:53;19.13;;;9.53;;
74904;SDS011;63465;50.862;6.220;2022-12-18T11:59:28;15.77;;;8.87;;
74904;SDS011;63465;50.862;6.220;2022-12-18T12:02:09;20.30;;;9.70;;
74904;SDS011;63465;50.862;6.220;2022-12-18T12:04:48;24.10;;;10.90;;
74904;SDS011;63465;50.862;6.220;2022-12-18T12:07:31;21.50;;;10.83;;
74904;SDS011;63465;50.862;6.220;2022-12-18T12:10:15;20.43;;;10.00;;
74904;SDS011;63465;50.862;6.220;2022-12-18T12:12:54;21.47;;;10.93;;
74904;SDS011;63465;50.862;6.220;2022-12-18T12:15:39;18.53;;;8.77;;
74904;SDS011;63465;50.862;6.220;2022-12-18T12:18:21;17.93;;;9.50;;
74904;SDS011;63465;50.862;6.220;2022-12-18T12:21:00;21.10;;;10.10;;
74904;SDS011;63465;50.862;6.220;2022-12-18T12:23:34;18.80;;;10.03;;
74904;SDS011;63465;50.862;6.220;2022-12-18T12:26:09;20.67;;;10.37;;
74904;SDS011;63465;50.862;6.220;2022-12-18T12:28:57;20.40;;;11.13;;
74904;SDS011;63465;50.862;6.220;2022-12-18T12:31:37;25.80;;;11.70;;
74904;SDS011;63465;50.862;6.220;2022-12-18T12:34:19;21.93;;;9.83;;
74904;SDS011;63465;50.862;6.220;2022-12-18T12:39:42;20.57;;;10.87;;
74904;SDS011;63465;50.862;6.220;2022-12-18T12:42:13;15.37;;;8.40;;
74904;SDS011;63465;50.862;6.220;2022-12-18T12:45:03;20.00;;;8.53;;
74904;SDS011;63465;50.862;6.220;2022-12-18T12:47:35;27.53;;;9.40;;
74904;SDS011;63465;50.862;6.220;2022-12-18T12:50:05;18.83;;;10.63;;
74904;SDS011;63465;50.862;6.220;2022-12-18T12:52:41;21.27;;;11.33;;
74904;SDS011;63465;50.862;6.220;2022-12-18T12:55:13;25.23;;;12.10;;
74904;SDS011;63465;50.862;6.220;2022-12-18T12:57:45;20.87;;;10.90;;
74904;SDS011;63465;50.862;6.220;2022-12-18T13:00:17;19.50;;;10.33;;
74904;SDS011;63465;50.862;6.220;2022-12-18T13:02:48;25.70;;;11.40;;
74904;SDS011;63465;50.862;6.220;2022-12-18T13:05:21;21.23;;;11.20;;
74904;SDS011;63465;50.862;6.220;2022-12-18T13:07:55;19.07;;;11.23;;
74904;SDS011;63465;50.862;6.220;2022-12-18T13:10:26;22.93;;;10.80;;
74904;SDS011;63465;50.862;6.220;2022-12-18T13:12:59;20.97;;;10.93;;
74904;SDS011;63465;50.862;6.220;2022-12-18T13:15:29;17.20;;;10.93;;
74904;SDS011;63465;50.862;6.220;2022-12-18T13:20:49;22.83;;;11.20;;
74904;SDS011;63465;50.862;6.220;2022-12-18T13:23:25;26.17;;;10.93;;
74904;SDS011;63465;50.862;6.220;2022-12-18T13:25:54;22.27;;;11.37;;
74904;SDS011;63465;50.862;6.220;2022-12-18T13:28:22;19.20;;;9.77;;
74904;SDS011;63465;50.862;6.220;2022-12-18T13:31:10;19.83;;;10.10;;
74904;SDS011;63465;50.862;6.220;2022-12-18T13:33:42;24.27;;;13.33;;
74904;SDS011;63465;50.862;6.220;2022-12-18T13:36:14;28.63;;;14.83;;
74904;SDS011;63465;50.862;6.220;2022-12-18T13:48:14;26.60;;;11.10;;
74904;SDS011;63465;50.862;6.220;2022-12-18T13:50:44;21.57;;;10.73;;
74904;SDS011;63465;50.862;6.220;2022-12-18T13:53:16;19.07;;;10.60;;
74904;SDS011;63465;50.862;6.220;2022-12-18T13:55:48;17.70;;;10.40;;
74904;SDS011;63465;50.862;6.220;2022-12-18T13:58:16;20.20;;;11.17;;
74904;SDS011;63465;50.862;6.220;2022-12-18T14:00:43;26.87;;;11.60;;
74904;SDS011;63465;50.862;6.220;2022-12-18T14:03:17;21.83;;;10.50;;
74904;SDS011;63465;50.862;6.220;2022-12-18T14:05:47;21.33;;;9.63;;
74904;SDS011;63465;50.862;6.220;2022-12-18T14:08:20;20.97;;;10.87;;
74904;SDS011;63465;50.862;6.220;2022-12-18T14:10:48;20.17;;;9.93;;
74904;SDS011;63465;50.862;6.220;2022-12-18T14:13:20;19.27;;;9.67;;
74904;SDS011;63465;50.862;6.220;2022-12-18T14:15:50;20.40;;;10.33;;
74904;SDS011;63465;50.862;6.220;2022-12-18T14:18:19;20.40;;;11.40;;
74904;SDS011;63465;50.862;6.220;2022-12-18T14:20:50;22.63;;;11.43;;
74904;SDS011;63465;50.862;6.220;2022-12-18T14:23:25;21.90;;;10.60;;
74904;SDS011;63465;50.862;6.220;2022-12-18T14:25:53;24.00;;;11.07;;
74904;SDS011;63465;50.862;6.220;2022-12-18T14:28:20;21.47;;;10.90;;
74904;SDS011;63465;50.862;6.220;2022-12-18T14:30:48;23.10;;;11.23;;
74904;SDS011;63465;50.862;6.220;2022-12-18T14:33:15;18.97;;;10.40;;
74904;SDS011;63465;50.862;6.220;2022-12-18T14:35:52;21.83;;;10.30;;
74904;SDS011;63465;50.862;6.220;2022-12-18T14:38:23;20.20;;;10.30;;
74904;SDS011;63465;50.862;6.220;2022-12-18T14:40:53;17.43;;;9.73;;
74904;SDS011;63465;50.862;6.220;2022-12-18T14:43:21;21.17;;;10.27;;
74904;SDS011;63465;50.862;6.220;2022-12-18T14:45:48;20.67;;;10.50;;
74904;SDS011;63465;50.862;6.220;2022-12-18T14:48:17;23.90;;;11.07;;
74904;SDS011;63465;50.862;6.220;2022-12-18T14:50:45;23.97;;;10.70;;
74904;SDS011;63465;50.862;6.220;2022-12-18T14:53:23;23.63;;;11.20;;
74904;SDS011;63465;50.862;6.220;2022-12-18T14:55:58;21.63;;;10.37;;
74904;SDS011;63465;50.862;6.220;2022-12-18T14:58:26;27.70;;;12.67;;
74904;SDS011;63465;50.862;6.220;2022-12-18T15:00:53;24.47;;;11.63;;
74904;SDS011;63465;50.862;6.220;2022-12-18T15:03:20;22.27;;;10.93;;
74904;SDS011;63465;50.862;6.220;2022-12-18T15:05:47;20.90;;;9.80;;
74904;SDS011;63465;50.862;6.220;2022-12-18T15:08:27;25.60;;;11.27;;